BOY weather

Bobo Dioulasso Airport
Bobo Dioulasso, Houet, Burkina Faso

Public forecast

Using degrees Celsius for public forecast. Weather courtesy of forecast.io.

METAR (pilot weather report)

Retrieved 2019/03/20 03:00 UTC (3 minutes ago):

DFOO 200300Z 18004KT CAVOK 27/20 Q1009

TAF (pilot weather forecast)

Forecast is more than 12 hours old.

Retrieved 2019/03/19 00:21 UTC (1 day ago):

TAF DFOO 192300Z 2000/2024 22008KT 8000 FEW020 TEMPO 2016/2024 4000 TSRA SCT020 FEW036CB